sensor_id;sensor_type;location;lat;lon;timestamp;P1;durP1;ratioP1;P2;durP2;ratioP2
7675;SDS011;3880;51.464;-2.566;2022-10-30T00:12:06;28.10;;;7.20;;
7675;SDS011;3880;51.464;-2.566;2022-10-30T00:14:57;20.87;;;4.30;;
7675;SDS011;3880;51.464;-2.566;2022-10-30T00:17:40;15.30;;;3.87;;
7675;SDS011;3880;51.464;-2.566;2022-10-30T00:23:55;19.27;;;4.03;;
7675;SDS011;3880;51.464;-2.566;2022-10-30T00:30:11;29.20;;;5.17;;
7675;SDS011;3880;51.464;-2.566;2022-10-30T00:36:18;21.87;;;4.27;;
7675;SDS011;3880;51.464;-2.566;2022-10-30T00:38:47;26.47;;;6.20;;
7675;SDS011;3880;51.464;-2.566;2022-10-30T01:25:46;15.13;;;4.27;;
7675;SDS011;3880;51.464;-2.566;2022-10-30T01:28:24;22.13;;;4.37;;
7675;SDS011;3880;51.464;-2.566;2022-10-30T01:31:01;28.23;;;4.73;;
7675;SDS011;3880;51.464;-2.566;2022-10-30T01:33:41;19.90;;;3.70;;
7675;SDS011;3880;51.464;-2.566;2022-10-30T01:36:20;17.43;;;4.93;;
7675;SDS011;3880;51.464;-2.566;2022-10-30T01:38:53;24.57;;;5.63;;
7675;SDS011;3880;51.464;-2.566;2022-10-30T01:41:26;18.17;;;4.47;;
7675;SDS011;3880;51.464;-2.566;2022-10-30T01:43:54;25.47;;;5.33;;
7675;SDS011;3880;51.464;-2.566;2022-10-30T01:46:36;14.00;;;4.20;;
7675;SDS011;3880;51.464;-2.566;2022-10-30T01:49:20;21.73;;;4.47;;
7675;SDS011;3880;51.464;-2.566;2022-10-30T01:51:56;29.07;;;4.83;;
7675;SDS011;3880;51.464;-2.566;2022-10-30T01:54:32;40.70;;;6.43;;
7675;SDS011;3880;51.464;-2.566;2022-10-30T01:57:06;20.17;;;5.23;;
7675;SDS011;3880;51.464;-2.566;2022-10-30T01:59:38;22.17;;;4.47;;
7675;SDS011;3880;51.464;-2.566;2022-10-30T02:02:10;36.03;;;5.53;;
7675;SDS011;3880;51.464;-2.566;2022-10-30T02:04:37;17.20;;;3.97;;
7675;SDS011;3880;51.464;-2.566;2022-10-30T02:07:04;21.40;;;5.33;;
7675;SDS011;3880;51.464;-2.566;2022-10-30T02:09:32;27.23;;;4.87;;
7675;SDS011;3880;51.464;-2.566;2022-10-30T02:11:59;16.73;;;3.90;;
7675;SDS011;3880;51.464;-2.566;2022-10-30T02:14:30;26.97;;;4.87;;
7675;SDS011;3880;51.464;-2.566;2022-10-30T02:17:01;21.17;;;4.43;;
7675;SDS011;3880;51.464;-2.566;2022-10-30T02:43:07;18.10;;;3.97;;
7675;SDS011;3880;51.464;-2.566;2022-10-30T02:45:37;17.80;;;4.20;;
7675;SDS011;3880;51.464;-2.566;2022-10-30T02:48:11;19.53;;;4.63;;
7675;SDS011;3880;51.464;-2.566;2022-10-30T02:50:47;26.77;;;4.93;;
7675;SDS011;3880;51.464;-2.566;2022-10-30T02:53:34;19.63;;;4.87;;
7675;SDS011;3880;51.464;-2.566;2022-10-30T02:56:03;17.93;;;4.57;;
7675;SDS011;3880;51.464;-2.566;2022-10-30T02:58:32;17.57;;;5.00;;
7675;SDS011;3880;51.464;-2.566;2022-10-30T03:01:03;17.80;;;3.57;;
7675;SDS011;3880;51.464;-2.566;2022-10-30T03:03:32;21.57;;;4.30;;
7675;SDS011;3880;51.464;-2.566;2022-10-30T03:05:59;26.47;;;5.03;;
7675;SDS011;3880;51.464;-2.566;2022-10-30T03:08:31;29.03;;;5.50;;
7675;SDS011;3880;51.464;-2.566;2022-10-30T03:11:11;23.10;;;4.87;;
7675;SDS011;3880;51.464;-2.566;2022-10-30T03:13:41;17.80;;;3.57;;
7675;SDS011;3880;51.464;-2.566;2022-10-30T03:16:12;26.70;;;4.63;;
7675;SDS011;3880;51.464;-2.566;2022-10-30T03:21:34;25.60;;;5.20;;
7675;SDS011;3880;51.464;-2.566;2022-10-30T03:24:03;22.37;;;5.17;;
7675;SDS011;3880;51.464;-2.566;2022-10-30T03:26:34;22.43;;;3.53;;
7675;SDS011;3880;51.464;-2.566;2022-10-30T03:29:04;19.77;;;4.77;;
7675;SDS011;3880;51.464;-2.566;2022-10-30T03:31:31;22.57;;;4.20;;
7675;SDS011;3880;51.464;-2.566;2022-10-30T03:33:59;20.63;;;4.63;;
7675;SDS011;3880;51.464;-2.566;2022-10-30T03:36:27;16.60;;;3.93;;
7675;SDS011;3880;51.464;-2.566;2022-10-30T03:45:46;16.57;;;3.37;;
7675;SDS011;3880;51.464;-2.566;2022-10-30T03:48:25;15.53;;;3.30;;
7675;SDS011;3880;51.464;-2.566;2022-10-30T04:06:12;29.33;;;4.87;;
7675;SDS011;3880;51.464;-2.566;2022-10-30T04:12:03;13.43;;;3.37;;
7675;SDS011;3880;51.464;-2.566;2022-10-30T04:14:55;20.90;;;6.00;;
7675;SDS011;3880;51.464;-2.566;2022-10-30T04:23:50;25.87;;;6.13;;
7675;SDS011;3880;51.464;-2.566;2022-10-30T04:34:16;16.07;;;3.57;;
7675;SDS011;3880;51.464;-2.566;2022-10-30T04:37:35;31.47;;;5.10;;
7675;SDS011;3880;51.464;-2.566;2022-10-30T04:40:07;22.83;;;4.47;;
7675;SDS011;3880;51.464;-2.566;2022-10-30T04:42:50;19.77;;;4.40;;
7675;SDS011;3880;51.464;-2.566;2022-10-30T04:52:19;18.80;;;4.67;;
7675;SDS011;3880;51.464;-2.566;2022-10-30T05:06:52;26.53;;;5.07;;
7675;SDS011;3880;51.464;-2.566;2022-10-30T05:09:20;12.47;;;3.10;;
7675;SDS011;3880;51.464;-2.566;2022-10-30T05:11:48;19.37;;;3.87;;
7675;SDS011;3880;51.464;-2.566;2022-10-30T05:25:40;19.03;;;4.27;;
7675;SDS011;3880;51.464;-2.566;2022-10-30T05:28:08;29.37;;;6.37;;
7675;SDS011;3880;51.464;-2.566;2022-10-30T05:30:36;9.50;;;3.03;;
7675;SDS011;3880;51.464;-2.566;2022-10-30T05:33:16;18.13;;;4.27;;
7675;SDS011;3880;51.464;-2.566;2022-10-30T05:35:59;17.77;;;3.97;;
7675;SDS011;3880;51.464;-2.566;2022-10-30T05:59:37;27.77;;;4.97;;
7675;SDS011;3880;51.464;-2.566;2022-10-30T06:43:02;20.27;;;4.63;;
7675;SDS011;3880;51.464;-2.566;2022-10-30T06:45:29;25.70;;;4.43;;
7675;SDS011;3880;51.464;-2.566;2022-10-30T06:47:56;24.40;;;5.03;;
7675;SDS011;3880;51.464;-2.566;2022-10-30T06:50:25;21.50;;;5.37;;
7675;SDS011;3880;51.464;-2.566;2022-10-30T06:52:52;25.77;;;4.23;;
7675;SDS011;3880;51.464;-2.566;2022-10-30T06:55:20;21.83;;;4.40;;
7675;SDS011;3880;51.464;-2.566;2022-10-30T06:57:51;28.77;;;6.43;;
7675;SDS011;3880;51.464;-2.566;2022-10-30T07:00:21;26.17;;;5.03;;
7675;SDS011;3880;51.464;-2.566;2022-10-30T07:02:55;14.60;;;3.83;;
7675;SDS011;3880;51.464;-2.566;2022-10-30T07:05:23;21.13;;;4.30;;
7675;SDS011;3880;51.464;-2.566;2022-10-30T07:07:50;20.23;;;5.57;;
7675;SDS011;3880;51.464;-2.566;2022-10-30T07:10:17;23.97;;;5.07;;
7675;SDS011;3880;51.464;-2.566;2022-10-30T07:12:49;17.57;;;5.00;;
7675;SDS011;3880;51.464;-2.566;2022-10-30T07:15:17;14.83;;;3.93;;
7675;SDS011;3880;51.464;-2.566;2022-10-30T07:17:53;22.90;;;4.57;;
7675;SDS011;3880;51.464;-2.566;2022-10-30T07:20:21;21.07;;;3.83;;
7675;SDS011;3880;51.464;-2.566;2022-10-30T07:22:49;24.30;;;4.53;;
7675;SDS011;3880;51.464;-2.566;2022-10-30T07:25:16;23.70;;;5.97;;
7675;SDS011;3880;51.464;-2.566;2022-10-30T07:27:43;22.57;;;3.73;;
7675;SDS011;3880;51.464;-2.566;2022-10-30T07:30:11;28.80;;;4.53;;
7675;SDS011;3880;51.464;-2.566;2022-10-30T07:32:39;22.30;;;4.13;;
7675;SDS011;3880;51.464;-2.566;2022-10-30T07:35:08;15.03;;;4.03;;
7675;SDS011;3880;51.464;-2.566;2022-10-30T07:37:36;24.63;;;5.13;;
7675;SDS011;3880;51.464;-2.566;2022-10-30T07:40:03;25.37;;;4.10;;
7675;SDS011;3880;51.464;-2.566;2022-10-30T07:42:32;25.93;;;4.70;;
7675;SDS011;3880;51.464;-2.566;2022-10-30T07:44:59;28.10;;;4.97;;
7675;SDS011;3880;51.464;-2.566;2022-10-30T07:47:26;22.23;;;4.20;;
7675;SDS011;3880;51.464;-2.566;2022-10-30T07:49:53;20.27;;;3.93;;
7675;SDS011;3880;51.464;-2.566;2022-10-30T07:52:21;26.60;;;4.63;;
7675;SDS011;3880;51.464;-2.566;2022-10-30T07:54:48;22.67;;;4.53;;
7675;SDS011;3880;51.464;-2.566;2022-10-30T07:57:15;24.47;;;3.97;;
7675;SDS011;3880;51.464;-2.566;2022-10-30T07:59:42;17.30;;;3.43;;
7675;SDS011;3880;51.464;-2.566;2022-10-30T08:02:09;18.63;;;4.67;;
7675;SDS011;3880;51.464;-2.566;2022-10-30T08:04:36;24.47;;;4.40;;
7675;SDS011;3880;51.464;-2.566;2022-10-30T08:07:03;24.43;;;5.00;;
7675;SDS011;3880;51.464;-2.566;2022-10-30T08:09:31;28.27;;;4.53;;
7675;SDS011;3880;51.464;-2.566;2022-10-30T08:11:58;22.73;;;5.47;;
7675;SDS011;3880;51.464;-2.566;2022-10-30T08:14:25;22.37;;;4.87;;
7675;SDS011;3880;51.464;-2.566;2022-10-30T08:16:52;23.37;;;4.00;;
7675;SDS011;3880;51.464;-2.566;2022-10-30T08:19:19;19.07;;;4.13;;
7675;SDS011;3880;51.464;-2.566;2022-10-30T08:21:46;23.00;;;4.57;;
7675;SDS011;3880;51.464;-2.566;2022-10-30T08:24:13;23.47;;;4.60;;
7675;SDS011;3880;51.464;-2.566;2022-10-30T08:26:42;26.03;;;5.27;;
7675;SDS011;3880;51.464;-2.566;2022-10-30T08:29:09;19.67;;;4.47;;
7675;SDS011;3880;51.464;-2.566;2022-10-30T08:31:36;27.47;;;4.60;;
7675;SDS011;3880;51.464;-2.566;2022-10-30T08:34:03;23.47;;;4.90;;
7675;SDS011;3880;51.464;-2.566;2022-10-30T08:36:30;20.67;;;4.13;;
7675;SDS011;3880;51.464;-2.566;2022-10-30T08:38:57;26.47;;;5.13;;
7675;SDS011;3880;51.464;-2.566;2022-10-30T08:41:24;22.73;;;4.57;;
7675;SDS011;3880;51.464;-2.566;2022-10-30T08:43:52;26.20;;;4.03;;
7675;SDS011;3880;51.464;-2.566;2022-10-30T08:46:19;21.03;;;5.00;;
7675;SDS011;3880;51.464;-2.566;2022-10-30T08:48:46;24.67;;;4.10;;
7675;SDS011;3880;51.464;-2.566;2022-10-30T08:51:14;32.00;;;4.80;;
7675;SDS011;3880;51.464;-2.566;2022-10-30T08:53:41;15.63;;;3.57;;
7675;SDS011;3880;51.464;-2.566;2022-10-30T08:56:08;19.93;;;4.87;;
7675;SDS011;3880;51.464;-2.566;2022-10-30T08:58:35;29.00;;;5.23;;
7675;SDS011;3880;51.464;-2.566;2022-10-30T09:01:03;29.50;;;4.50;;
7675;SDS011;3880;51.464;-2.566;2022-10-30T09:03:30;25.23;;;4.70;;
7675;SDS011;3880;51.464;-2.566;2022-10-30T09:05:57;23.10;;;5.10;;
7675;SDS011;3880;51.464;-2.566;2022-10-30T09:08:25;24.90;;;4.73;;
7675;SDS011;3880;51.464;-2.566;2022-10-30T09:10:53;21.47;;;4.83;;
7675;SDS011;3880;51.464;-2.566;2022-10-30T09:13:21;24.37;;;5.97;;
7675;SDS011;3880;51.464;-2.566;2022-10-30T09:15:48;22.07;;;4.67;;
7675;SDS011;3880;51.464;-2.566;2022-10-30T09:18:16;16.83;;;4.23;;
7675;SDS011;3880;51.464;-2.566;2022-10-30T09:20:43;21.63;;;4.70;;
7675;SDS011;3880;51.464;-2.566;2022-10-30T09:23:10;18.93;;;4.43;;
7675;SDS011;3880;51.464;-2.566;2022-10-30T09:25:37;21.93;;;4.07;;
7675;SDS011;3880;51.464;-2.566;2022-10-30T09:28:04;17.53;;;4.00;;
7675;SDS011;3880;51.464;-2.566;2022-10-30T09:30:31;19.80;;;4.13;;
7675;SDS011;3880;51.464;-2.566;2022-10-30T09:32:59;21.70;;;4.43;;
7675;SDS011;3880;51.464;-2.566;2022-10-30T09:35:28;18.77;;;3.83;;
7675;SDS011;3880;51.464;-2.566;2022-10-30T09:37:56;16.47;;;3.83;;
7675;SDS011;3880;51.464;-2.566;2022-10-30T09:40:26;17.33;;;3.30;;
7675;SDS011;3880;51.464;-2.566;2022-10-30T09:43:08;15.53;;;3.97;;
7675;SDS011;3880;51.464;-2.566;2022-10-30T09:45:47;16.17;;;3.87;;
7675;SDS011;3880;51.464;-2.566;2022-10-30T09:52:07;24.20;;;4.27;;
7675;SDS011;3880;51.464;-2.566;2022-10-30T09:54:47;15.77;;;4.07;;
7675;SDS011;3880;51.464;-2.566;2022-10-30T09:57:23;15.67;;;4.40;;
7675;SDS011;3880;51.464;-2.566;2022-10-30T10:00:01;17.83;;;4.33;;
7675;SDS011;3880;51.464;-2.566;2022-10-30T10:02:32;14.50;;;3.53;;
7675;SDS011;3880;51.464;-2.566;2022-10-30T10:05:03;18.23;;;3.83;;
7675;SDS011;3880;51.464;-2.566;2022-10-30T10:07:41;24.63;;;3.83;;
7675;SDS011;3880;51.464;-2.566;2022-10-30T10:10:13;29.20;;;4.27;;
7675;SDS011;3880;51.464;-2.566;2022-10-30T10:12:45;20.87;;;4.60;;
7675;SDS011;3880;51.464;-2.566;2022-10-30T10:15:16;19.27;;;4.73;;
7675;SDS011;3880;51.464;-2.566;2022-10-30T10:17:53;13.90;;;3.43;;
7675;SDS011;3880;51.464;-2.566;2022-10-30T10:20:24;18.60;;;5.90;;
7675;SDS011;3880;51.464;-2.566;2022-10-30T10:22:56;17.27;;;4.43;;
7675;SDS011;3880;51.464;-2.566;2022-10-30T10:25:27;14.63;;;3.73;;
7675;SDS011;3880;51.464;-2.566;2022-10-30T10:28:02;15.33;;;4.43;;
7675;SDS011;3880;51.464;-2.566;2022-10-30T10:30:41;12.50;;;3.30;;
7675;SDS011;3880;51.464;-2.566;2022-10-30T10:33:23;18.60;;;4.03;;
7675;SDS011;3880;51.464;-2.566;2022-10-30T10:36:01;17.20;;;3.73;;
7675;SDS011;3880;51.464;-2.566;2022-10-30T10:38:41;16.47;;;3.97;;
7675;SDS011;3880;51.464;-2.566;2022-10-30T10:41:22;16.00;;;3.13;;
7675;SDS011;3880;51.464;-2.566;2022-10-30T10:44:00;15.00;;;3.60;;
7675;SDS011;3880;51.464;-2.566;2022-10-30T10:46:43;14.17;;;3.43;;
7675;SDS011;3880;51.464;-2.566;2022-10-30T10:49:26;10.17;;;3.10;;
7675;SDS011;3880;51.464;-2.566;2022-10-30T10:52:07;15.87;;;3.23;;
7675;SDS011;3880;51.464;-2.566;2022-10-30T10:54:39;15.60;;;3.80;;
7675;SDS011;3880;51.464;-2.566;2022-10-30T10:57:11;17.77;;;3.97;;
7675;SDS011;3880;51.464;-2.566;2022-10-30T10:59:42;15.93;;;4.70;;
7675;SDS011;3880;51.464;-2.566;2022-10-30T11:02:21;19.73;;;3.77;;
7675;SDS011;3880;51.464;-2.566;2022-10-30T11:04:56;18.27;;;3.57;;
7675;SDS011;3880;51.464;-2.566;2022-10-30T11:07:29;14.33;;;2.73;;
7675;SDS011;3880;51.464;-2.566;2022-10-30T11:09:59;12.87;;;3.50;;
7675;SDS011;3880;51.464;-2.566;2022-10-30T11:12:26;14.00;;;3.70;;
7675;SDS011;3880;51.464;-2.566;2022-10-30T11:14:56;15.03;;;3.50;;
7675;SDS011;3880;51.464;-2.566;2022-10-30T11:17:25;12.90;;;3.33;;
7675;SDS011;3880;51.464;-2.566;2022-10-30T11:19:59;16.57;;;3.53;;
7675;SDS011;3880;51.464;-2.566;2022-10-30T11:22:37;19.77;;;3.33;;
7675;SDS011;3880;51.464;-2.566;2022-10-30T11:25:19;18.60;;;4.13;;
7675;SDS011;3880;51.464;-2.566;2022-10-30T11:27:47;15.73;;;3.90;;
7675;SDS011;3880;51.464;-2.566;2022-10-30T11:30:19;17.13;;;3.27;;
7675;SDS011;3880;51.464;-2.566;2022-10-30T11:32:49;18.30;;;5.87;;
7675;SDS011;3880;51.464;-2.566;2022-10-30T11:35:16;13.50;;;3.60;;
7675;SDS011;3880;51.464;-2.566;2022-10-30T11:37:45;11.70;;;3.13;;
7675;SDS011;3880;51.464;-2.566;2022-10-30T11:40:16;21.87;;;4.17;;
7675;SDS011;3880;51.464;-2.566;2022-10-30T11:42:46;11.30;;;2.97;;
7675;SDS011;3880;51.464;-2.566;2022-10-30T11:45:16;16.33;;;3.03;;
7675;SDS011;3880;51.464;-2.566;2022-10-30T11:47:45;7.23;;;2.80;;
7675;SDS011;3880;51.464;-2.566;2022-10-30T11:50:17;12.50;;;3.60;;
7675;SDS011;3880;51.464;-2.566;2022-10-30T11:52:46;11.03;;;3.17;;
7675;SDS011;3880;51.464;-2.566;2022-10-30T11:55:15;14.17;;;4.00;;
7675;SDS011;3880;51.464;-2.566;2022-10-30T11:57:47;10.17;;;2.10;;
7675;SDS011;3880;51.464;-2.566;2022-10-30T12:00:17;10.53;;;3.07;;
7675;SDS011;3880;51.464;-2.566;2022-10-30T12:02:45;10.27;;;2.80;;
7675;SDS011;3880;51.464;-2.566;2022-10-30T12:05:28;8.93;;;2.67;;
7675;SDS011;3880;51.464;-2.566;2022-10-30T12:08:16;15.67;;;3.80;;
7675;SDS011;3880;51.464;-2.566;2022-10-30T12:10:46;15.77;;;3.13;;
7675;SDS011;3880;51.464;-2.566;2022-10-30T12:13:22;6.87;;;2.23;;
7675;SDS011;3880;51.464;-2.566;2022-10-30T12:16:02;9.27;;;3.20;;
7675;SDS011;3880;51.464;-2.566;2022-10-30T12:18:34;13.07;;;3.20;;
7675;SDS011;3880;51.464;-2.566;2022-10-30T12:21:02;13.47;;;2.97;;
7675;SDS011;3880;51.464;-2.566;2022-10-30T12:23:29;9.17;;;3.30;;
7675;SDS011;3880;51.464;-2.566;2022-10-30T12:25:59;5.33;;;1.80;;
7675;SDS011;3880;51.464;-2.566;2022-10-30T12:28:29;5.00;;;2.00;;
7675;SDS011;3880;51.464;-2.566;2022-10-30T12:30:59;2.43;;;1.33;;
7675;SDS011;3880;51.464;-2.566;2022-10-30T12:33:31;4.13;;;1.53;;
7675;SDS011;3880;51.464;-2.566;2022-10-30T12:36:02;3.33;;;1.47;;
7675;SDS011;3880;51.464;-2.566;2022-10-30T12:38:33;2.63;;;1.50;;
7675;SDS011;3880;51.464;-2.566;2022-10-30T12:41:04;2.10;;;1.40;;
7675;SDS011;3880;51.464;-2.566;2022-10-30T12:43:39;5.27;;;1.67;;
7675;SDS011;3880;51.464;-2.566;2022-10-30T12:46:25;7.27;;;1.90;;
7675;SDS011;3880;51.464;-2.566;2022-10-30T12:49:00;4.67;;;1.80;;
7675;SDS011;3880;51.464;-2.566;2022-10-30T12:51:35;7.57;;;2.07;;
7675;SDS011;3880;51.464;-2.566;2022-10-30T12:54:07;6.00;;;2.43;;
7675;SDS011;3880;51.464;-2.566;2022-10-30T12:56:43;3.50;;;1.27;;
7675;SDS011;3880;51.464;-2.566;2022-10-30T12:59:26;6.50;;;1.90;;
7675;SDS011;3880;51.464;-2.566;2022-10-30T13:01:58;4.63;;;1.77;;
7675;SDS011;3880;51.464;-2.566;2022-10-30T13:04:35;7.80;;;1.53;;
7675;SDS011;3880;51.464;-2.566;2022-10-30T13:07:09;4.57;;;1.73;;
7675;SDS011;3880;51.464;-2.566;2022-10-30T13:09:46;4.27;;;2.00;;
7675;SDS011;3880;51.464;-2.566;2022-10-30T13:12:21;4.33;;;1.77;;
7675;SDS011;3880;51.464;-2.566;2022-10-30T13:14:54;2.83;;;1.60;;
7675;SDS011;3880;51.464;-2.566;2022-10-30T13:17:25;7.67;;;2.43;;
7675;SDS011;3880;51.464;-2.566;2022-10-30T13:19:52;2.93;;;1.67;;
7675;SDS011;3880;51.464;-2.566;2022-10-30T13:22:21;7.43;;;2.53;;
7675;SDS011;3880;51.464;-2.566;2022-10-30T13:24:55;7.93;;;1.60;;
7675;SDS011;3880;51.464;-2.566;2022-10-30T13:27:28;3.93;;;1.60;;
7675;SDS011;3880;51.464;-2.566;2022-10-30T13:30:08;3.33;;;1.97;;
7675;SDS011;3880;51.464;-2.566;2022-10-30T13:32:40;10.77;;;2.33;;
7675;SDS011;3880;51.464;-2.566;2022-10-30T13:35:20;6.00;;;2.23;;
7675;SDS011;3880;51.464;-2.566;2022-10-30T13:37:57;7.47;;;2.30;;
7675;SDS011;3880;51.464;-2.566;2022-10-30T13:40:30;3.38;;;1.75;;
7675;SDS011;3880;51.464;-2.566;2022-10-30T13:43:03;4.35;;;1.85;;
7675;SDS011;3880;51.464;-2.566;2022-10-30T13:45:53;6.57;;;2.30;;
7675;SDS011;3880;51.464;-2.566;2022-10-30T13:48:41;4.80;;;2.10;;
7675;SDS011;3880;51.464;-2.566;2022-10-30T13:51:26;6.13;;;2.20;;
7675;SDS011;3880;51.464;-2.566;2022-10-30T13:54:03;5.18;;;2.72;;
7675;SDS011;3880;51.464;-2.566;2022-10-30T13:56:35;9.20;;;2.95;;
7675;SDS011;3880;51.464;-2.566;2022-10-30T13:59:05;5.80;;;2.30;;
7675;SDS011;3880;51.464;-2.566;2022-10-30T14:01:46;11.45;;;3.00;;
7675;SDS011;3880;51.464;-2.566;2022-10-30T14:04:24;8.15;;;2.45;;
7675;SDS011;3880;51.464;-2.566;2022-10-30T14:06:58;9.27;;;3.03;;
7675;SDS011;3880;51.464;-2.566;2022-10-30T14:09:47;8.57;;;3.00;;
7675;SDS011;3880;51.464;-2.566;2022-10-30T14:15:14;10.60;;;3.03;;
7675;SDS011;3880;51.464;-2.566;2022-10-30T14:24:12;9.87;;;2.57;;
7675;SDS011;3880;51.464;-2.566;2022-10-30T14:26:46;6.97;;;2.60;;
7675;SDS011;3880;51.464;-2.566;2022-10-30T14:29:36;10.37;;;2.83;;
7675;SDS011;3880;51.464;-2.566;2022-10-30T14:38:22;11.60;;;3.40;;
7675;SDS011;3880;51.464;-2.566;2022-10-30T14:41:02;13.23;;;3.97;;
7675;SDS011;3880;51.464;-2.566;2022-10-30T14:43:38;16.27;;;3.77;;
7675;SDS011;3880;51.464;-2.566;2022-10-30T14:46:14;15.97;;;4.83;;
7675;SDS011;3880;51.464;-2.566;2022-10-30T14:48:51;17.53;;;3.37;;
7675;SDS011;3880;51.464;-2.566;2022-10-30T14:51:28;11.93;;;3.50;;
7675;SDS011;3880;51.464;-2.566;2022-10-30T14:54:03;22.27;;;4.03;;
7675;SDS011;3880;51.464;-2.566;2022-10-30T14:56:40;13.17;;;4.10;;
7675;SDS011;3880;51.464;-2.566;2022-10-30T14:59:20;13.13;;;3.83;;
7675;SDS011;3880;51.464;-2.566;2022-10-30T15:01:52;10.77;;;3.63;;
7675;SDS011;3880;51.464;-2.566;2022-10-30T15:04:26;15.83;;;3.97;;
7675;SDS011;3880;51.464;-2.566;2022-10-30T15:07:05;15.97;;;3.97;;
7675;SDS011;3880;51.464;-2.566;2022-10-30T15:09:42;12.03;;;3.77;;
7675;SDS011;3880;51.464;-2.566;2022-10-30T15:12:21;19.87;;;3.60;;
7675;SDS011;3880;51.464;-2.566;2022-10-30T15:14:59;17.33;;;4.17;;
7675;SDS011;3880;51.464;-2.566;2022-10-30T15:17:29;17.87;;;4.03;;
7675;SDS011;3880;51.464;-2.566;2022-10-30T15:19:58;13.20;;;3.63;;
7675;SDS011;3880;51.464;-2.566;2022-10-30T15:22:28;16.90;;;4.20;;
7675;SDS011;3880;51.464;-2.566;2022-10-30T15:24:59;21.83;;;4.27;;
7675;SDS011;3880;51.464;-2.566;2022-10-30T15:27:27;16.33;;;4.63;;
7675;SDS011;3880;51.464;-2.566;2022-10-30T15:29:57;18.63;;;3.63;;
7675;SDS011;3880;51.464;-2.566;2022-10-30T15:32:28;19.27;;;4.30;;
7675;SDS011;3880;51.464;-2.566;2022-10-30T15:34:55;12.20;;;3.07;;
7675;SDS011;3880;51.464;-2.566;2022-10-30T15:37:25;18.13;;;4.30;;
7675;SDS011;3880;51.464;-2.566;2022-10-30T15:40:09;13.83;;;3.70;;
7675;SDS011;3880;51.464;-2.566;2022-10-30T15:42:40;14.67;;;4.23;;
7675;SDS011;3880;51.464;-2.566;2022-10-30T15:45:10;14.87;;;4.93;;
7675;SDS011;3880;51.464;-2.566;2022-10-30T15:47:44;16.20;;;3.63;;
7675;SDS011;3880;51.464;-2.566;2022-10-30T15:50:13;13.90;;;4.03;;
7675;SDS011;3880;51.464;-2.566;2022-10-30T15:52:41;18.83;;;3.80;;
7675;SDS011;3880;51.464;-2.566;2022-10-30T15:55:11;15.67;;;3.43;;
7675;SDS011;3880;51.464;-2.566;2022-10-30T15:57:41;17.00;;;4.70;;
7675;SDS011;3880;51.464;-2.566;2022-10-30T16:00:18;14.50;;;4.40;;
7675;SDS011;3880;51.464;-2.566;2022-10-30T16:02:46;13.47;;;3.93;;
7675;SDS011;3880;51.464;-2.566;2022-10-30T16:05:18;19.97;;;4.07;;
7675;SDS011;3880;51.464;-2.566;2022-10-30T16:07:46;15.77;;;4.07;;
7675;SDS011;3880;51.464;-2.566;2022-10-30T16:10:16;19.23;;;4.77;;
7675;SDS011;3880;51.464;-2.566;2022-10-30T16:12:44;17.37;;;3.73;;
7675;SDS011;3880;51.464;-2.566;2022-10-30T16:15:16;13.60;;;4.00;;
7675;SDS011;3880;51.464;-2.566;2022-10-30T16:17:57;13.70;;;3.97;;
7675;SDS011;3880;51.464;-2.566;2022-10-30T16:20:41;16.30;;;4.80;;
7675;SDS011;3880;51.464;-2.566;2022-10-30T16:23:12;18.30;;;4.27;;
7675;SDS011;3880;51.464;-2.566;2022-10-30T16:25:41;16.50;;;4.03;;
7675;SDS011;3880;51.464;-2.566;2022-10-30T16:28:21;16.03;;;3.93;;
7675;SDS011;3880;51.464;-2.566;2022-10-30T16:30:50;14.93;;;3.40;;
7675;SDS011;3880;51.464;-2.566;2022-10-30T16:33:17;19.70;;;3.93;;
7675;SDS011;3880;51.464;-2.566;2022-10-30T16:35:50;20.07;;;3.97;;
7675;SDS011;3880;51.464;-2.566;2022-10-30T16:38:18;22.87;;;4.67;;
7675;SDS011;3880;51.464;-2.566;2022-10-30T16:40:47;21.10;;;4.10;;
7675;SDS011;3880;51.464;-2.566;2022-10-30T16:43:23;17.10;;;4.30;;
7675;SDS011;3880;51.464;-2.566;2022-10-30T16:45:52;22.43;;;4.07;;
7675;SDS011;3880;51.464;-2.566;2022-10-30T16:48:24;20.80;;;5.13;;
7675;SDS011;3880;51.464;-2.566;2022-10-30T16:50:57;19.53;;;3.87;;
7675;SDS011;3880;51.464;-2.566;2022-10-30T16:53:25;16.47;;;4.33;;
7675;SDS011;3880;51.464;-2.566;2022-10-30T16:55:55;17.73;;;4.97;;
7675;SDS011;3880;51.464;-2.566;2022-10-30T16:58:24;14.80;;;4.60;;
7675;SDS011;3880;51.464;-2.566;2022-10-30T17:00:55;21.30;;;4.40;;
7675;SDS011;3880;51.464;-2.566;2022-10-30T17:03:27;15.33;;;4.90;;
7675;SDS011;3880;51.464;-2.566;2022-10-30T17:06:02;19.60;;;5.37;;
7675;SDS011;3880;51.464;-2.566;2022-10-30T17:08:39;16.33;;;4.43;;
7675;SDS011;3880;51.464;-2.566;2022-10-30T17:11:16;20.00;;;4.50;;
7675;SDS011;3880;51.464;-2.566;2022-10-30T17:13:57;18.90;;;5.73;;
7675;SDS011;3880;51.464;-2.566;2022-10-30T17:16:26;19.23;;;4.77;;
7675;SDS011;3880;51.464;-2.566;2022-10-30T17:18:55;21.40;;;5.87;;
7675;SDS011;3880;51.464;-2.566;2022-10-30T17:21:24;21.67;;;4.67;;
7675;SDS011;3880;51.464;-2.566;2022-10-30T17:23:53;26.33;;;6.23;;
7675;SDS011;3880;51.464;-2.566;2022-10-30T17:26:24;24.17;;;5.30;;
7675;SDS011;3880;51.464;-2.566;2022-10-30T17:28:52;18.20;;;7.03;;
7675;SDS011;3880;51.464;-2.566;2022-10-30T17:31:20;21.60;;;4.97;;
7675;SDS011;3880;51.464;-2.566;2022-10-30T17:34:02;30.70;;;5.67;;
7675;SDS011;3880;51.464;-2.566;2022-10-30T17:36:36;14.80;;;4.80;;
7675;SDS011;3880;51.464;-2.566;2022-10-30T17:39:03;22.60;;;4.37;;
7675;SDS011;3880;51.464;-2.566;2022-10-30T17:41:31;16.60;;;4.87;;
7675;SDS011;3880;51.464;-2.566;2022-10-30T17:43:58;21.07;;;4.60;;
7675;SDS011;3880;51.464;-2.566;2022-10-30T17:46:26;18.80;;;5.00;;
7675;SDS011;3880;51.464;-2.566;2022-10-30T17:48:53;37.83;;;8.27;;
7675;SDS011;3880;51.464;-2.566;2022-10-30T17:51:23;21.87;;;5.97;;
7675;SDS011;3880;51.464;-2.566;2022-10-30T17:53:50;22.20;;;4.97;;
7675;SDS011;3880;51.464;-2.566;2022-10-30T17:56:18;19.83;;;6.10;;
7675;SDS011;3880;51.464;-2.566;2022-10-30T17:58:49;17.80;;;5.13;;
7675;SDS011;3880;51.464;-2.566;2022-10-30T18:01:17;24.73;;;5.50;;
7675;SDS011;3880;51.464;-2.566;2022-10-30T18:03:46;20.20;;;5.70;;
7675;SDS011;3880;51.464;-2.566;2022-10-30T18:06:14;22.70;;;6.17;;
7675;SDS011;3880;51.464;-2.566;2022-10-30T18:08:42;25.57;;;6.17;;
7675;SDS011;3880;51.464;-2.566;2022-10-30T18:11:10;32.77;;;7.80;;
7675;SDS011;3880;51.464;-2.566;2022-10-30T18:13:37;28.80;;;5.97;;
7675;SDS011;3880;51.464;-2.566;2022-10-30T18:16:07;23.60;;;6.43;;
7675;SDS011;3880;51.464;-2.566;2022-10-30T18:18:37;28.60;;;7.03;;
7675;SDS011;3880;51.464;-2.566;2022-10-30T18:21:05;17.30;;;5.17;;
7675;SDS011;3880;51.464;-2.566;2022-10-30T18:23:32;18.60;;;5.87;;
7675;SDS011;3880;51.464;-2.566;2022-10-30T18:25:59;25.83;;;6.20;;
7675;SDS011;3880;51.464;-2.566;2022-10-30T18:28:26;16.00;;;5.03;;
7675;SDS011;3880;51.464;-2.566;2022-10-30T18:30:53;25.60;;;6.20;;
7675;SDS011;3880;51.464;-2.566;2022-10-30T18:33:23;28.23;;;7.23;;
7675;SDS011;3880;51.464;-2.566;2022-10-30T18:35:50;27.23;;;6.20;;
7675;SDS011;3880;51.464;-2.566;2022-10-30T18:38:18;34.93;;;7.27;;
7675;SDS011;3880;51.464;-2.566;2022-10-30T18:40:45;35.80;;;8.27;;
7675;SDS011;3880;51.464;-2.566;2022-10-30T18:43:14;19.50;;;5.57;;
7675;SDS011;3880;51.464;-2.566;2022-10-30T18:45:42;26.37;;;7.23;;
7675;SDS011;3880;51.464;-2.566;2022-10-30T18:48:09;28.33;;;6.73;;
7675;SDS011;3880;51.464;-2.566;2022-10-30T18:50:38;31.33;;;7.23;;
7675;SDS011;3880;51.464;-2.566;2022-10-30T18:53:09;22.60;;;6.43;;
7675;SDS011;3880;51.464;-2.566;2022-10-30T18:55:39;26.23;;;6.37;;
7675;SDS011;3880;51.464;-2.566;2022-10-30T18:58:08;21.53;;;5.93;;
7675;SDS011;3880;51.464;-2.566;2022-10-30T19:00:35;38.40;;;5.60;;
7675;SDS011;3880;51.464;-2.566;2022-10-30T19:03:05;23.47;;;5.47;;
7675;SDS011;3880;51.464;-2.566;2022-10-30T19:05:33;26.73;;;5.07;;
7675;SDS011;3880;51.464;-2.566;2022-10-30T19:08:04;31.67;;;5.90;;
7675;SDS011;3880;51.464;-2.566;2022-10-30T19:10:32;19.00;;;6.00;;
7675;SDS011;3880;51.464;-2.566;2022-10-30T19:13:01;22.00;;;5.80;;
7675;SDS011;3880;51.464;-2.566;2022-10-30T19:15:33;20.90;;;5.47;;
7675;SDS011;3880;51.464;-2.566;2022-10-30T19:18:01;25.67;;;6.03;;
7675;SDS011;3880;51.464;-2.566;2022-10-30T19:20:29;24.60;;;5.43;;
7675;SDS011;3880;51.464;-2.566;2022-10-30T19:22:57;24.17;;;5.60;;